sensor_id;sensor_type;location;lat;lon;timestamp;P1;durP1;ratioP1;P2;durP2;ratioP2
24813;SDS011;12904;50.088;11.414;2023-11-19T00:01:55;12.77;;;8.55;;
24813;SDS011;12904;50.088;11.414;2023-11-19T00:04:21;12.05;;;8.60;;
24813;SDS011;12904;50.088;11.414;2023-11-19T00:06:47;15.05;;;9.82;;
24813;SDS011;12904;50.088;11.414;2023-11-19T00:09:13;12.27;;;8.73;;
24813;SDS011;12904;50.088;11.414;2023-11-19T00:11:41;16.92;;;10.10;;
24813;SDS011;12904;50.088;11.414;2023-11-19T00:14:07;14.88;;;9.55;;
24813;SDS011;12904;50.088;11.414;2023-11-19T00:16:33;11.55;;;9.32;;
24813;SDS011;12904;50.088;11.414;2023-11-19T00:18:59;12.38;;;9.65;;
24813;SDS011;12904;50.088;11.414;2023-11-19T00:21:25;18.38;;;9.00;;
24813;SDS011;12904;50.088;11.414;2023-11-19T00:23:53;12.95;;;9.80;;
24813;SDS011;12904;50.088;11.414;2023-11-19T00:26:19;15.48;;;9.40;;
24813;SDS011;12904;50.088;11.414;2023-11-19T00:28:45;13.13;;;9.48;;
24813;SDS011;12904;50.088;11.414;2023-11-19T00:31:12;18.83;;;9.60;;
24813;SDS011;12904;50.088;11.414;2023-11-19T00:33:38;13.43;;;9.38;;
24813;SDS011;12904;50.088;11.414;2023-11-19T00:36:04;10.18;;;8.63;;
24813;SDS011;12904;50.088;11.414;2023-11-19T00:38:31;10.02;;;8.15;;
24813;SDS011;12904;50.088;11.414;2023-11-19T00:40:56;12.63;;;8.48;;
24813;SDS011;12904;50.088;11.414;2023-11-19T00:43:22;9.18;;;7.28;;
24813;SDS011;12904;50.088;11.414;2023-11-19T00:45:48;12.38;;;8.75;;
24813;SDS011;12904;50.088;11.414;2023-11-19T00:48:16;11.00;;;8.25;;
24813;SDS011;12904;50.088;11.414;2023-11-19T00:50:42;11.45;;;8.18;;
24813;SDS011;12904;50.088;11.414;2023-11-19T00:53:09;12.32;;;8.57;;
24813;SDS011;12904;50.088;11.414;2023-11-19T00:55:35;10.95;;;7.90;;
24813;SDS011;12904;50.088;11.414;2023-11-19T00:58:00;13.77;;;9.10;;
24813;SDS011;12904;50.088;11.414;2023-11-19T01:00:26;11.20;;;8.18;;
24813;SDS011;12904;50.088;11.414;2023-11-19T01:02:52;10.23;;;8.73;;
24813;SDS011;12904;50.088;11.414;2023-11-19T01:05:18;17.40;;;8.95;;
24813;SDS011;12904;50.088;11.414;2023-11-19T01:07:47;11.75;;;9.00;;
24813;SDS011;12904;50.088;11.414;2023-11-19T01:10:13;11.43;;;8.00;;
24813;SDS011;12904;50.088;11.414;2023-11-19T01:12:41;10.90;;;8.98;;
24813;SDS011;12904;50.088;11.414;2023-11-19T01:15:07;10.98;;;8.43;;
24813;SDS011;12904;50.088;11.414;2023-11-19T01:17:33;12.27;;;8.15;;
24813;SDS011;12904;50.088;11.414;2023-11-19T01:19:58;11.50;;;8.35;;
24813;SDS011;12904;50.088;11.414;2023-11-19T01:22:24;10.50;;;8.02;;
24813;SDS011;12904;50.088;11.414;2023-11-19T01:24:50;10.38;;;8.68;;
24813;SDS011;12904;50.088;11.414;2023-11-19T01:27:17;13.85;;;8.82;;
24813;SDS011;12904;50.088;11.414;2023-11-19T01:29:42;11.43;;;8.70;;
24813;SDS011;12904;50.088;11.414;2023-11-19T01:32:08;12.02;;;8.77;;
24813;SDS011;12904;50.088;11.414;2023-11-19T01:34:34;12.23;;;8.70;;
24813;SDS011;12904;50.088;11.414;2023-11-19T01:37:00;12.77;;;9.63;;
24813;SDS011;12904;50.088;11.414;2023-11-19T01:39:26;10.93;;;8.65;;
24813;SDS011;12904;50.088;11.414;2023-11-19T01:41:52;11.25;;;7.93;;
24813;SDS011;12904;50.088;11.414;2023-11-19T01:44:19;10.75;;;7.82;;
24813;SDS011;12904;50.088;11.414;2023-11-19T01:46:45;13.13;;;8.70;;
24813;SDS011;12904;50.088;11.414;2023-11-19T01:49:15;15.45;;;8.43;;
24813;SDS011;12904;50.088;11.414;2023-11-19T01:51:41;12.98;;;7.65;;
24813;SDS011;12904;50.088;11.414;2023-11-19T01:54:07;7.78;;;6.45;;
24813;SDS011;12904;50.088;11.414;2023-11-19T01:56:33;9.18;;;6.80;;
24813;SDS011;12904;50.088;11.414;2023-11-19T01:59:00;10.35;;;7.25;;
24813;SDS011;12904;50.088;11.414;2023-11-19T02:01:27;16.00;;;6.28;;
24813;SDS011;12904;50.088;11.414;2023-11-19T02:03:52;9.57;;;6.47;;
24813;SDS011;12904;50.088;11.414;2023-11-19T02:06:18;12.25;;;7.15;;
24813;SDS011;12904;50.088;11.414;2023-11-19T02:08:44;8.80;;;5.82;;
24813;SDS011;12904;50.088;11.414;2023-11-19T02:11:09;15.00;;;6.65;;
24813;SDS011;12904;50.088;11.414;2023-11-19T02:13:37;12.90;;;7.20;;
24813;SDS011;12904;50.088;11.414;2023-11-19T02:16:03;8.82;;;6.43;;
24813;SDS011;12904;50.088;11.414;2023-11-19T02:18:29;10.05;;;6.55;;
24813;SDS011;12904;50.088;11.414;2023-11-19T02:20:55;12.80;;;6.90;;
24813;SDS011;12904;50.088;11.414;2023-11-19T02:23:25;13.65;;;6.63;;
24813;SDS011;12904;50.088;11.414;2023-11-19T02:28:27;13.02;;;7.05;;
24813;SDS011;12904;50.088;11.414;2023-11-19T02:30:53;8.48;;;5.80;;
24813;SDS011;12904;50.088;11.414;2023-11-19T02:33:18;9.50;;;6.03;;
24813;SDS011;12904;50.088;11.414;2023-11-19T02:35:44;6.60;;;5.75;;
24813;SDS011;12904;50.088;11.414;2023-11-19T02:38:10;11.82;;;6.32;;
24813;SDS011;12904;50.088;11.414;2023-11-19T02:40:36;11.98;;;6.78;;
24813;SDS011;12904;50.088;11.414;2023-11-19T02:43:01;9.57;;;5.93;;
24813;SDS011;12904;50.088;11.414;2023-11-19T02:45:29;9.18;;;6.32;;
24813;SDS011;12904;50.088;11.414;2023-11-19T02:47:56;12.60;;;6.88;;
24813;SDS011;12904;50.088;11.414;2023-11-19T02:50:21;7.93;;;6.35;;
24813;SDS011;12904;50.088;11.414;2023-11-19T02:52:50;8.38;;;6.15;;
24813;SDS011;12904;50.088;11.414;2023-11-19T02:55:18;10.32;;;5.85;;
24813;SDS011;12904;50.088;11.414;2023-11-19T02:57:44;11.27;;;6.05;;
24813;SDS011;12904;50.088;11.414;2023-11-19T03:00:14;10.55;;;6.72;;
24813;SDS011;12904;50.088;11.414;2023-11-19T03:02:43;7.15;;;5.35;;
24813;SDS011;12904;50.088;11.414;2023-11-19T03:05:14;7.22;;;5.45;;
24813;SDS011;12904;50.088;11.414;2023-11-19T03:07:44;9.90;;;6.00;;
24813;SDS011;12904;50.088;11.414;2023-11-19T03:10:10;8.90;;;6.32;;
24813;SDS011;12904;50.088;11.414;2023-11-19T03:12:43;7.68;;;5.30;;
24813;SDS011;12904;50.088;11.414;2023-11-19T03:15:10;7.97;;;5.75;;
24813;SDS011;12904;50.088;11.414;2023-11-19T03:17:39;6.68;;;5.57;;
24813;SDS011;12904;50.088;11.414;2023-11-19T03:20:07;9.73;;;6.07;;
24813;SDS011;12904;50.088;11.414;2023-11-19T03:22:40;8.93;;;6.28;;
24813;SDS011;12904;50.088;11.414;2023-11-19T03:25:09;7.78;;;6.03;;
24813;SDS011;12904;50.088;11.414;2023-11-19T03:27:38;7.85;;;6.05;;
24813;SDS011;12904;50.088;11.414;2023-11-19T03:30:07;6.28;;;5.28;;
24813;SDS011;12904;50.088;11.414;2023-11-19T03:32:36;7.53;;;4.93;;
24813;SDS011;12904;50.088;11.414;2023-11-19T03:35:03;6.15;;;5.07;;
24813;SDS011;12904;50.088;11.414;2023-11-19T03:37:32;6.20;;;4.80;;
24813;SDS011;12904;50.088;11.414;2023-11-19T03:39:57;6.00;;;3.97;;
24813;SDS011;12904;50.088;11.414;2023-11-19T03:42:27;5.88;;;4.22;;
24813;SDS011;12904;50.088;11.414;2023-11-19T03:44:54;7.43;;;4.38;;
24813;SDS011;12904;50.088;11.414;2023-11-19T03:47:21;8.57;;;4.32;;
24813;SDS011;12904;50.088;11.414;2023-11-19T03:49:47;9.73;;;4.10;;
24813;SDS011;12904;50.088;11.414;2023-11-19T03:52:16;6.22;;;3.70;;
24813;SDS011;12904;50.088;11.414;2023-11-19T03:54:43;5.13;;;4.03;;
24813;SDS011;12904;50.088;11.414;2023-11-19T03:57:09;5.15;;;3.75;;
24813;SDS011;12904;50.088;11.414;2023-11-19T03:59:35;6.80;;;4.47;;
24813;SDS011;12904;50.088;11.414;2023-11-19T04:02:01;5.40;;;3.58;;
24813;SDS011;12904;50.088;11.414;2023-11-19T04:04:27;5.93;;;3.42;;
24813;SDS011;12904;50.088;11.414;2023-11-19T04:06:54;3.88;;;3.35;;
24813;SDS011;12904;50.088;11.414;2023-11-19T04:09:20;5.00;;;3.30;;
24813;SDS011;12904;50.088;11.414;2023-11-19T04:11:46;4.50;;;3.03;;
24813;SDS011;12904;50.088;11.414;2023-11-19T04:14:12;4.65;;;3.92;;
24813;SDS011;12904;50.088;11.414;2023-11-19T04:16:39;5.03;;;3.72;;
24813;SDS011;12904;50.088;11.414;2023-11-19T04:19:05;3.92;;;2.85;;
24813;SDS011;12904;50.088;11.414;2023-11-19T04:21:31;3.75;;;2.92;;
24813;SDS011;12904;50.088;11.414;2023-11-19T04:23:58;3.92;;;3.17;;
24813;SDS011;12904;50.088;11.414;2023-11-19T04:26:23;4.80;;;2.80;;
24813;SDS011;12904;50.088;11.414;2023-11-19T04:28:49;4.28;;;2.97;;
24813;SDS011;12904;50.088;11.414;2023-11-19T04:31:15;4.35;;;2.90;;
24813;SDS011;12904;50.088;11.414;2023-11-19T04:33:44;4.88;;;2.50;;
24813;SDS011;12904;50.088;11.414;2023-11-19T04:36:10;3.42;;;2.45;;
24813;SDS011;12904;50.088;11.414;2023-11-19T04:38:36;5.72;;;2.70;;
24813;SDS011;12904;50.088;11.414;2023-11-19T04:41:03;4.20;;;2.75;;
24813;SDS011;12904;50.088;11.414;2023-11-19T04:43:30;4.35;;;3.17;;
24813;SDS011;12904;50.088;11.414;2023-11-19T04:45:57;7.07;;;2.95;;
24813;SDS011;12904;50.088;11.414;2023-11-19T04:48:22;4.43;;;3.08;;
24813;SDS011;12904;50.088;11.414;2023-11-19T04:50:48;6.30;;;2.85;;
24813;SDS011;12904;50.088;11.414;2023-11-19T04:53:15;5.57;;;3.15;;
24813;SDS011;12904;50.088;11.414;2023-11-19T04:55:42;5.95;;;3.28;;
24813;SDS011;12904;50.088;11.414;2023-11-19T04:58:08;3.88;;;3.10;;
24813;SDS011;12904;50.088;11.414;2023-11-19T05:00:34;3.85;;;2.88;;
24813;SDS011;12904;50.088;11.414;2023-11-19T05:02:59;3.65;;;2.65;;
24813;SDS011;12904;50.088;11.414;2023-11-19T05:05:25;6.55;;;2.40;;
24813;SDS011;12904;50.088;11.414;2023-11-19T05:07:51;2.90;;;2.13;;
24813;SDS011;12904;50.088;11.414;2023-11-19T05:10:16;3.97;;;2.85;;
24813;SDS011;12904;50.088;11.414;2023-11-19T05:12:42;4.70;;;2.50;;
24813;SDS011;12904;50.088;11.414;2023-11-19T05:15:08;2.75;;;2.33;;
24813;SDS011;12904;50.088;11.414;2023-11-19T05:17:34;4.18;;;2.65;;
24813;SDS011;12904;50.088;11.414;2023-11-19T05:19:59;4.32;;;3.08;;
24813;SDS011;12904;50.088;11.414;2023-11-19T05:22:25;3.08;;;2.40;;
24813;SDS011;12904;50.088;11.414;2023-11-19T05:24:51;4.38;;;2.80;;
24813;SDS011;12904;50.088;11.414;2023-11-19T05:27:17;3.97;;;3.10;;
24813;SDS011;12904;50.088;11.414;2023-11-19T05:29:42;3.38;;;2.55;;
24813;SDS011;12904;50.088;11.414;2023-11-19T05:32:08;4.18;;;2.70;;
24813;SDS011;12904;50.088;11.414;2023-11-19T05:34:35;5.03;;;2.85;;
24813;SDS011;12904;50.088;11.414;2023-11-19T05:37:00;4.32;;;2.80;;
24813;SDS011;12904;50.088;11.414;2023-11-19T05:39:27;5.43;;;3.10;;
24813;SDS011;12904;50.088;11.414;2023-11-19T05:41:53;4.35;;;2.85;;
24813;SDS011;12904;50.088;11.414;2023-11-19T05:44:18;3.47;;;2.80;;
24813;SDS011;12904;50.088;11.414;2023-11-19T05:46:44;4.45;;;3.58;;
24813;SDS011;12904;50.088;11.414;2023-11-19T05:49:11;4.72;;;2.80;;
24813;SDS011;12904;50.088;11.414;2023-11-19T05:51:40;8.95;;;3.28;;
24813;SDS011;12904;50.088;11.414;2023-11-19T05:54:09;4.80;;;3.08;;
24813;SDS011;12904;50.088;11.414;2023-11-19T05:56:35;7.13;;;3.25;;
24813;SDS011;12904;50.088;11.414;2023-11-19T05:59:02;4.97;;;2.40;;
24813;SDS011;12904;50.088;11.414;2023-11-19T06:01:32;6.50;;;3.05;;
24813;SDS011;12904;50.088;11.414;2023-11-19T06:04:01;6.10;;;2.80;;
24813;SDS011;12904;50.088;11.414;2023-11-19T06:06:27;6.90;;;3.25;;
24813;SDS011;12904;50.088;11.414;2023-11-19T06:08:53;4.15;;;2.88;;
24813;SDS011;12904;50.088;11.414;2023-11-19T06:11:20;3.33;;;2.40;;
24813;SDS011;12904;50.088;11.414;2023-11-19T06:13:45;12.48;;;3.35;;
24813;SDS011;12904;50.088;11.414;2023-11-19T06:16:12;6.40;;;4.88;;
24813;SDS011;12904;50.088;11.414;2023-11-19T06:18:38;6.07;;;4.72;;
24813;SDS011;12904;50.088;11.414;2023-11-19T06:21:05;4.40;;;3.53;;
24813;SDS011;12904;50.088;11.414;2023-11-19T06:23:31;7.45;;;3.88;;
24813;SDS011;12904;50.088;11.414;2023-11-19T06:25:56;4.68;;;3.10;;
24813;SDS011;12904;50.088;11.414;2023-11-19T06:28:22;5.05;;;2.85;;
24813;SDS011;12904;50.088;11.414;2023-11-19T06:30:47;3.65;;;2.67;;
24813;SDS011;12904;50.088;11.414;2023-11-19T06:33:13;3.22;;;2.75;;
24813;SDS011;12904;50.088;11.414;2023-11-19T06:35:39;3.67;;;2.60;;
24813;SDS011;12904;50.088;11.414;2023-11-19T06:38:05;4.75;;;2.55;;
24813;SDS011;12904;50.088;11.414;2023-11-19T06:40:31;4.07;;;2.80;;
24813;SDS011;12904;50.088;11.414;2023-11-19T06:42:57;3.65;;;2.80;;
24813;SDS011;12904;50.088;11.414;2023-11-19T06:45:22;3.67;;;2.85;;
24813;SDS011;12904;50.088;11.414;2023-11-19T06:47:48;3.72;;;2.60;;
24813;SDS011;12904;50.088;11.414;2023-11-19T06:50:14;9.15;;;3.08;;
24813;SDS011;12904;50.088;11.414;2023-11-19T06:52:40;7.05;;;5.68;;
24813;SDS011;12904;50.088;11.414;2023-11-19T06:55:06;9.77;;;7.82;;
24813;SDS011;12904;50.088;11.414;2023-11-19T06:57:32;8.30;;;6.97;;
24813;SDS011;12904;50.088;11.414;2023-11-19T06:59:58;4.65;;;3.95;;
24813;SDS011;12904;50.088;11.414;2023-11-19T07:02:24;4.32;;;3.63;;
24813;SDS011;12904;50.088;11.414;2023-11-19T07:04:50;5.63;;;3.85;;
24813;SDS011;12904;50.088;11.414;2023-11-19T07:07:16;6.47;;;3.53;;
24813;SDS011;12904;50.088;11.414;2023-11-19T07:09:41;6.68;;;3.47;;
24813;SDS011;12904;50.088;11.414;2023-11-19T07:12:07;5.85;;;3.40;;
24813;SDS011;12904;50.088;11.414;2023-11-19T07:14:34;3.97;;;3.40;;
24813;SDS011;12904;50.088;11.414;2023-11-19T07:16:59;4.35;;;3.20;;
24813;SDS011;12904;50.088;11.414;2023-11-19T07:19:25;7.40;;;4.50;;
24813;SDS011;12904;50.088;11.414;2023-11-19T07:21:51;4.70;;;3.92;;
24813;SDS011;12904;50.088;11.414;2023-11-19T07:24:19;5.50;;;3.97;;
24813;SDS011;12904;50.088;11.414;2023-11-19T07:26:46;5.45;;;3.80;;
24813;SDS011;12904;50.088;11.414;2023-11-19T07:29:12;4.32;;;3.53;;
24813;SDS011;12904;50.088;11.414;2023-11-19T07:31:38;4.35;;;3.72;;
24813;SDS011;12904;50.088;11.414;2023-11-19T07:34:04;9.40;;;4.68;;
24813;SDS011;12904;50.088;11.414;2023-11-19T07:36:31;8.90;;;4.68;;
24813;SDS011;12904;50.088;11.414;2023-11-19T07:38:57;20.40;;;6.38;;
24813;SDS011;12904;50.088;11.414;2023-11-19T07:41:23;24.55;;;6.50;;
24813;SDS011;12904;50.088;11.414;2023-11-19T07:43:50;7.55;;;5.32;;
24813;SDS011;12904;50.088;11.414;2023-11-19T07:46:17;7.40;;;5.25;;
24813;SDS011;12904;50.088;11.414;2023-11-19T07:48:46;17.35;;;6.40;;
24813;SDS011;12904;50.088;11.414;2023-11-19T07:51:12;55.88;;;9.88;;
24813;SDS011;12904;50.088;11.414;2023-11-19T07:53:38;31.15;;;7.50;;
24813;SDS011;12904;50.088;11.414;2023-11-19T07:56:05;8.32;;;4.82;;
24813;SDS011;12904;50.088;11.414;2023-11-19T07:58:32;11.68;;;5.20;;
24813;SDS011;12904;50.088;11.414;2023-11-19T08:00:57;36.10;;;7.03;;
24813;SDS011;12904;50.088;11.414;2023-11-19T08:03:23;11.50;;;5.63;;
24813;SDS011;12904;50.088;11.414;2023-11-19T08:05:49;7.40;;;5.72;;
24813;SDS011;12904;50.088;11.414;2023-11-19T08:08:15;8.00;;;7.20;;
24813;SDS011;12904;50.088;11.414;2023-11-19T08:10:40;12.70;;;7.95;;
24813;SDS011;12904;50.088;11.414;2023-11-19T08:13:06;7.65;;;6.85;;
24813;SDS011;12904;50.088;11.414;2023-11-19T08:15:35;9.07;;;8.07;;
24813;SDS011;12904;50.088;11.414;2023-11-19T08:18:00;8.13;;;6.50;;
24813;SDS011;12904;50.088;11.414;2023-11-19T08:20:27;8.43;;;7.68;;
24813;SDS011;12904;50.088;11.414;2023-11-19T08:22:52;12.52;;;7.85;;
24813;SDS011;12904;50.088;11.414;2023-11-19T08:25:18;3.50;;;3.20;;
24813;SDS011;12904;50.088;11.414;2023-11-19T08:27:43;4.65;;;3.33;;
24813;SDS011;12904;50.088;11.414;2023-11-19T08:30:09;2.17;;;1.98;;
24813;SDS011;12904;50.088;11.414;2023-11-19T08:32:35;3.13;;;2.03;;
24813;SDS011;12904;50.088;11.414;2023-11-19T08:35:01;2.65;;;2.10;;
24813;SDS011;12904;50.088;11.414;2023-11-19T08:37:27;3.13;;;2.85;;
24813;SDS011;12904;50.088;11.414;2023-11-19T08:39:53;1.83;;;1.60;;
24813;SDS011;12904;50.088;11.414;2023-11-19T08:42:18;2.22;;;1.40;;
24813;SDS011;12904;50.088;11.414;2023-11-19T08:44:48;3.60;;;2.00;;
24813;SDS011;12904;50.088;11.414;2023-11-19T08:47:15;1.70;;;1.58;;
24813;SDS011;12904;50.088;11.414;2023-11-19T08:49:43;2.10;;;1.70;;
24813;SDS011;12904;50.088;11.414;2023-11-19T08:52:09;2.28;;;1.50;;
24813;SDS011;12904;50.088;11.414;2023-11-19T08:54:35;3.10;;;1.80;;
24813;SDS011;12904;50.088;11.414;2023-11-19T08:57:07;1.45;;;0.98;;
24813;SDS011;12904;50.088;11.414;2023-11-19T08:59:33;2.33;;;1.00;;
24813;SDS011;12904;50.088;11.414;2023-11-19T09:01:59;2.55;;;1.00;;
24813;SDS011;12904;50.088;11.414;2023-11-19T09:04:25;1.63;;;0.98;;
24813;SDS011;12904;50.088;11.414;2023-11-19T09:06:50;3.08;;;1.00;;
24813;SDS011;12904;50.088;11.414;2023-11-19T09:09:16;1.23;;;0.90;;
24813;SDS011;12904;50.088;11.414;2023-11-19T09:11:42;1.95;;;0.93;;
24813;SDS011;12904;50.088;11.414;2023-11-19T09:14:08;3.03;;;0.82;;
24813;SDS011;12904;50.088;11.414;2023-11-19T09:16:33;1.83;;;0.60;;
24813;SDS011;12904;50.088;11.414;2023-11-19T09:18:59;1.55;;;0.70;;
24813;SDS011;12904;50.088;11.414;2023-11-19T09:21:27;2.28;;;0.70;;
24813;SDS011;12904;50.088;11.414;2023-11-19T09:23:54;1.60;;;0.77;;
24813;SDS011;12904;50.088;11.414;2023-11-19T09:26:20;2.05;;;0.75;;
24813;SDS011;12904;50.088;11.414;2023-11-19T09:28:45;1.08;;;0.70;;
24813;SDS011;12904;50.088;11.414;2023-11-19T09:31:15;0.77;;;0.77;;
24813;SDS011;12904;50.088;11.414;2023-11-19T09:33:41;1.48;;;0.70;;
24813;SDS011;12904;50.088;11.414;2023-11-19T09:36:07;1.95;;;0.60;;
24813;SDS011;12904;50.088;11.414;2023-11-19T09:38:33;1.90;;;0.70;;
24813;SDS011;12904;50.088;11.414;2023-11-19T09:41:03;2.55;;;0.80;;
24813;SDS011;12904;50.088;11.414;2023-11-19T09:43:33;1.00;;;0.77;;
24813;SDS011;12904;50.088;11.414;2023-11-19T09:45:59;1.05;;;0.55;;
24813;SDS011;12904;50.088;11.414;2023-11-19T09:48:32;1.50;;;0.60;;
24813;SDS011;12904;50.088;11.414;2023-11-19T09:51:05;1.75;;;0.60;;
24813;SDS011;12904;50.088;11.414;2023-11-19T09:53:32;0.98;;;0.70;;
24813;SDS011;12904;50.088;11.414;2023-11-19T09:56:04;1.52;;;0.60;;
24813;SDS011;12904;50.088;11.414;2023-11-19T09:58:31;1.08;;;0.57;;
24813;SDS011;12904;50.088;11.414;2023-11-19T10:00:58;1.10;;;0.70;;
24813;SDS011;12904;50.088;11.414;2023-11-19T10:03:24;2.72;;;0.63;;
24813;SDS011;12904;50.088;11.414;2023-11-19T10:05:54;0.98;;;0.60;;
24813;SDS011;12904;50.088;11.414;2023-11-19T10:08:21;0.80;;;0.80;;
24813;SDS011;12904;50.088;11.414;2023-11-19T10:10:47;1.80;;;0.55;;
24813;SDS011;12904;50.088;11.414;2023-11-19T10:13:13;2.80;;;0.70;;
24813;SDS011;12904;50.088;11.414;2023-11-19T10:15:39;2.15;;;0.60;;
24813;SDS011;12904;50.088;11.414;2023-11-19T10:18:06;1.20;;;0.60;;
24813;SDS011;12904;50.088;11.414;2023-11-19T10:20:35;1.48;;;0.75;;
24813;SDS011;12904;50.088;11.414;2023-11-19T10:23:01;1.92;;;0.77;;
24813;SDS011;12904;50.088;11.414;2023-11-19T10:25:28;0.90;;;0.60;;
24813;SDS011;12904;50.088;11.414;2023-11-19T10:27:54;1.45;;;0.70;;
24813;SDS011;12904;50.088;11.414;2023-11-19T10:30:21;3.15;;;0.93;;
24813;SDS011;12904;50.088;11.414;2023-11-19T10:35:55;2.08;;;0.75;;
24813;SDS011;12904;50.088;11.414;2023-11-19T10:38:22;1.38;;;0.70;;
24813;SDS011;12904;50.088;11.414;2023-11-19T10:40:49;1.85;;;0.60;;
24813;SDS011;12904;50.088;11.414;2023-11-19T10:43:18;2.53;;;0.80;;
24813;SDS011;12904;50.088;11.414;2023-11-19T10:45:44;1.20;;;0.57;;
24813;SDS011;12904;50.088;11.414;2023-11-19T10:48:10;2.05;;;0.70;;
24813;SDS011;12904;50.088;11.414;2023-11-19T10:50:38;1.10;;;0.50;;
24813;SDS011;12904;50.088;11.414;2023-11-19T10:53:08;2.45;;;0.73;;
24813;SDS011;12904;50.088;11.414;2023-11-19T10:55:36;3.38;;;0.80;;
24813;SDS011;12904;50.088;11.414;2023-11-19T10:58:07;1.55;;;0.70;;
24813;SDS011;12904;50.088;11.414;2023-11-19T11:03:10;2.83;;;0.70;;
24813;SDS011;12904;50.088;11.414;2023-11-19T11:05:50;2.78;;;0.90;;
24813;SDS011;12904;50.088;11.414;2023-11-19T11:08:17;5.20;;;1.10;;
24813;SDS011;12904;50.088;11.414;2023-11-19T11:10:48;1.27;;;0.77;;
24813;SDS011;12904;50.088;11.414;2023-11-19T11:13:18;3.22;;;1.00;;
24813;SDS011;12904;50.088;11.414;2023-11-19T11:15:44;5.95;;;1.67;;
24813;SDS011;12904;50.088;11.414;2023-11-19T11:18:14;4.30;;;0.80;;
24813;SDS011;12904;50.088;11.414;2023-11-19T11:20:40;2.25;;;1.27;;
24813;SDS011;12904;50.088;11.414;2023-11-19T11:23:12;2.30;;;0.73;;
24813;SDS011;12904;50.088;11.414;2023-11-19T11:36:46;5.13;;;1.23;;
24813;SDS011;12904;50.088;11.414;2023-11-19T11:39:35;2.72;;;0.93;;
24813;SDS011;12904;50.088;11.414;2023-11-19T11:42:49;2.47;;;0.90;;
24813;SDS011;12904;50.088;11.414;2023-11-19T11:53:21;2.38;;;0.95;;
24813;SDS011;12904;50.088;11.414;2023-11-19T11:55:52;3.25;;;1.00;;
24813;SDS011;12904;50.088;11.414;2023-11-19T11:58:19;2.10;;;0.95;;
24813;SDS011;12904;50.088;11.414;2023-11-19T12:00:45;3.20;;;0.77;;
24813;SDS011;12904;50.088;11.414;2023-11-19T12:03:12;2.55;;;0.80;;
24813;SDS011;12904;50.088;11.414;2023-11-19T12:05:40;3.53;;;0.90;;
24813;SDS011;12904;50.088;11.414;2023-11-19T12:08:07;3.08;;;1.10;;
24813;SDS011;12904;50.088;11.414;2023-11-19T12:10:43;5.18;;;1.23;;
24813;SDS011;12904;50.088;11.414;2023-11-19T12:13:16;6.25;;;1.17;;
24813;SDS011;12904;50.088;11.414;2023-11-19T12:18:28;4.32;;;1.00;;
24813;SDS011;12904;50.088;11.414;2023-11-19T12:20:58;2.53;;;1.25;;
24813;SDS011;12904;50.088;11.414;2023-11-19T12:23:31;4.95;;;0.70;;
24813;SDS011;12904;50.088;11.414;2023-11-19T12:25:57;3.20;;;0.98;;
24813;SDS011;12904;50.088;11.414;2023-11-19T12:28:23;3.65;;;1.30;;
24813;SDS011;12904;50.088;11.414;2023-11-19T12:30:51;3.17;;;0.70;;
24813;SDS011;12904;50.088;11.414;2023-11-19T12:33:18;3.03;;;0.75;;
24813;SDS011;12904;50.088;11.414;2023-11-19T12:35:47;2.50;;;1.25;;
24813;SDS011;12904;50.088;11.414;2023-11-19T12:38:23;2.85;;;1.35;;
24813;SDS011;12904;50.088;11.414;2023-11-19T12:41:02;2.63;;;0.88;;
24813;SDS011;12904;50.088;11.414;2023-11-19T12:43:32;3.47;;;0.80;;
24813;SDS011;12904;50.088;11.414;2023-11-19T12:45:59;5.90;;;1.17;;
24813;SDS011;12904;50.088;11.414;2023-11-19T12:48:25;3.83;;;1.35;;
24813;SDS011;12904;50.088;11.414;2023-11-19T12:53:21;5.18;;;0.88;;
24813;SDS011;12904;50.088;11.414;2023-11-19T12:55:47;5.93;;;1.00;;
24813;SDS011;12904;50.088;11.414;2023-11-19T13:01:02;4.68;;;0.85;;
24813;SDS011;12904;50.088;11.414;2023-11-19T13:03:29;3.65;;;0.80;;
24813;SDS011;12904;50.088;11.414;2023-11-19T13:06:02;4.22;;;0.80;;
24813;SDS011;12904;50.088;11.414;2023-11-19T13:08:38;7.20;;;2.58;;
24813;SDS011;12904;50.088;11.414;2023-11-19T13:11:05;3.85;;;0.88;;
24813;SDS011;12904;50.088;11.414;2023-11-19T13:13:31;8.07;;;1.40;;
24813;SDS011;12904;50.088;11.414;2023-11-19T13:16:04;5.50;;;1.00;;
24813;SDS011;12904;50.088;11.414;2023-11-19T13:18:34;5.13;;;0.90;;
24813;SDS011;12904;50.088;11.414;2023-11-19T13:20:59;3.97;;;1.42;;
24813;SDS011;12904;50.088;11.414;2023-11-19T13:23:25;6.13;;;1.13;;
24813;SDS011;12904;50.088;11.414;2023-11-19T13:25:51;3.80;;;1.10;;
24813;SDS011;12904;50.088;11.414;2023-11-19T13:28:17;2.60;;;0.90;;
24813;SDS011;12904;50.088;11.414;2023-11-19T13:30:42;2.35;;;0.98;;
24813;SDS011;12904;50.088;11.414;2023-11-19T13:33:08;4.28;;;0.93;;
24813;SDS011;12904;50.088;11.414;2023-11-19T13:35:38;6.20;;;1.58;;
24813;SDS011;12904;50.088;11.414;2023-11-19T13:38:06;2.92;;;0.93;;
24813;SDS011;12904;50.088;11.414;2023-11-19T13:40:33;3.83;;;1.33;;
24813;SDS011;12904;50.088;11.414;2023-11-19T13:42:59;7.32;;;1.20;;
24813;SDS011;12904;50.088;11.414;2023-11-19T13:45:25;5.13;;;1.15;;
24813;SDS011;12904;50.088;11.414;2023-11-19T13:47:51;2.97;;;1.33;;
24813;SDS011;12904;50.088;11.414;2023-11-19T13:50:17;1.95;;;0.93;;
24813;SDS011;12904;50.088;11.414;2023-11-19T13:52:43;3.55;;;1.23;;
24813;SDS011;12904;50.088;11.414;2023-11-19T13:55:11;2.33;;;0.80;;
24813;SDS011;12904;50.088;11.414;2023-11-19T13:57:37;2.67;;;1.02;;
24813;SDS011;12904;50.088;11.414;2023-11-19T14:00:04;4.07;;;0.90;;
24813;SDS011;12904;50.088;11.414;2023-11-19T14:02:38;3.97;;;1.40;;
24813;SDS011;12904;50.088;11.414;2023-11-19T14:05:05;5.38;;;1.25;;
24813;SDS011;12904;50.088;11.414;2023-11-19T14:07:32;3.13;;;0.90;;
24813;SDS011;12904;50.088;11.414;2023-11-19T14:09:58;3.65;;;1.13;;
24813;SDS011;12904;50.088;11.414;2023-11-19T14:12:23;4.82;;;1.00;;
24813;SDS011;12904;50.088;11.414;2023-11-19T14:14:49;2.67;;;1.00;;
24813;SDS011;12904;50.088;11.414;2023-11-19T14:17:14;2.60;;;0.90;;
24813;SDS011;12904;50.088;11.414;2023-11-19T14:19:41;3.35;;;1.10;;
24813;SDS011;12904;50.088;11.414;2023-11-19T14:22:07;3.53;;;1.05;;
24813;SDS011;12904;50.088;11.414;2023-11-19T14:24:33;2.30;;;0.90;;
24813;SDS011;12904;50.088;11.414;2023-11-19T14:26:59;2.97;;;1.00;;
24813;SDS011;12904;50.088;11.414;2023-11-19T14:29:25;3.75;;;0.90;;
24813;SDS011;12904;50.088;11.414;2023-11-19T14:31:52;2.85;;;1.65;;
24813;SDS011;12904;50.088;11.414;2023-11-19T14:34:19;3.40;;;1.25;;
24813;SDS011;12904;50.088;11.414;2023-11-19T14:36:45;4.45;;;1.00;;
24813;SDS011;12904;50.088;11.414;2023-11-19T14:39:11;3.72;;;1.58;;
24813;SDS011;12904;50.088;11.414;2023-11-19T14:41:36;3.42;;;1.05;;
24813;SDS011;12904;50.088;11.414;2023-11-19T14:44:02;5.82;;;0.90;;
24813;SDS011;12904;50.088;11.414;2023-11-19T14:46:28;3.50;;;1.00;;
24813;SDS011;12904;50.088;11.414;2023-11-19T14:48:54;2.58;;;1.15;;
24813;SDS011;12904;50.088;11.414;2023-11-19T14:51:20;4.32;;;0.95;;
24813;SDS011;12904;50.088;11.414;2023-11-19T14:53:46;2.03;;;1.00;;
24813;SDS011;12904;50.088;11.414;2023-11-19T14:56:12;3.30;;;1.00;;
24813;SDS011;12904;50.088;11.414;2023-11-19T14:58:38;3.10;;;0.90;;
24813;SDS011;12904;50.088;11.414;2023-11-19T15:01:04;4.55;;;0.80;;
24813;SDS011;12904;50.088;11.414;2023-11-19T15:03:30;2.38;;;0.98;;
24813;SDS011;12904;50.088;11.414;2023-11-19T15:05:56;3.55;;;1.17;;